createdAt,value
2022-12-18T00:00:12.258Z,96.39
2022-12-18T00:03:17.456Z,95.92
2022-12-18T00:06:20.683Z,95.50
2022-12-18T00:09:24.780Z,95.31
2022-12-18T00:12:26.934Z,95.23
2022-12-18T00:15:28.983Z,95.21
2022-12-18T00:18:31.144Z,95.08
2022-12-18T00:21:34.525Z,95.05
2022-12-18T00:24:36.547Z,95.12
2022-12-18T00:27:38.643Z,95.09
2022-12-18T00:30:40.685Z,95.09
2022-12-18T00:33:42.970Z,95.16
2022-12-18T00:36:45.128Z,95.19
2022-12-18T00:39:49.463Z,95.08
2022-12-18T00:42:57.584Z,95.29
2022-12-18T00:45:59.588Z,95.39
2022-12-18T00:49:01.712Z,95.48
2022-12-18T00:52:03.772Z,95.57
2022-12-18T00:55:06.689Z,95.71
2022-12-18T00:58:10.671Z,95.70
2022-12-18T01:01:12.814Z,95.54
2022-12-18T01:04:15.406Z,95.50
2022-12-18T01:07:17.584Z,95.44
2022-12-18T01:10:19.761Z,95.42
2022-12-18T01:13:21.711Z,95.31
2022-12-18T01:16:24.246Z,95.33
2022-12-18T01:19:26.342Z,95.37
2022-12-18T01:22:28.665Z,95.29
2022-12-18T01:25:30.705Z,95.18
2022-12-18T01:28:33.128Z,94.98
2022-12-18T01:31:35.739Z,94.86
2022-12-18T01:34:38.498Z,94.93
2022-12-18T01:37:40.566Z,95.09
2022-12-18T01:40:42.680Z,95.19
2022-12-18T01:43:47.322Z,95.25
2022-12-18T01:46:49.332Z,95.14
2022-12-18T01:49:51.810Z,94.90
2022-12-18T01:53:04.996Z,94.84
2022-12-18T01:56:07.711Z,94.78
2022-12-18T01:59:12.642Z,94.73
2022-12-18T02:02:15.924Z,94.81
2022-12-18T02:05:28.064Z,94.87
2022-12-18T02:08:36.889Z,95.06
2022-12-18T02:11:57.026Z,95.17
2022-12-18T02:14:59.071Z,94.99
2022-12-18T02:18:17.522Z,95.03
2022-12-18T02:21:22.493Z,95.17
2022-12-18T02:24:40.467Z,95.07
2022-12-18T02:27:45.390Z,94.95
2022-12-18T02:30:50.296Z,94.81
2022-12-18T02:33:56.452Z,94.45
2022-12-18T02:37:02.259Z,93.81
2022-12-18T02:40:06.135Z,93.78
2022-12-18T02:43:11.822Z,93.94
2022-12-18T02:46:26.380Z,94.04
2022-12-18T02:49:43.428Z,94.08
2022-12-18T02:53:10.305Z,94.32
2022-12-18T02:56:22.808Z,94.83
2022-12-18T02:59:41.795Z,95.01
2022-12-18T03:02:57.478Z,95.19
2022-12-18T03:06:26.597Z,95.21
2022-12-18T03:09:43.178Z,95.39
2022-12-18T03:13:08.577Z,95.74
2022-12-18T03:16:16.642Z,95.71
2022-12-18T03:19:23.491Z,95.79
2022-12-18T03:22:30.448Z,95.93
2022-12-18T03:25:35.456Z,95.95
2022-12-18T03:28:43.255Z,96.27
2022-12-18T03:31:50.836Z,95.89
2022-12-18T03:34:56.521Z,95.93
2022-12-18T03:37:58.811Z,95.84
2022-12-18T03:41:07.611Z,95.96
2022-12-18T03:44:41.800Z,96.04
2022-12-18T03:47:46.476Z,96.04
2022-12-18T03:50:58.437Z,96.09
2022-12-18T03:54:03.665Z,95.98
2022-12-18T03:57:16.921Z,95.75
2022-12-18T04:00:20.628Z,95.74
2022-12-18T04:03:26.556Z,95.43
2022-12-18T04:06:40.464Z,95.44
2022-12-18T04:09:44.787Z,95.37
2022-12-18T04:12:47.127Z,95.31
2022-12-18T04:15:49.324Z,95.03
2022-12-18T04:18:51.707Z,94.82
2022-12-18T04:21:57.024Z,94.79
2022-12-18T04:24:59.110Z,94.83
2022-12-18T04:28:01.159Z,94.70
2022-12-18T04:31:03.694Z,94.76
2022-12-18T04:34:05.800Z,94.54
2022-12-18T04:37:07.784Z,94.57
2022-12-18T04:40:10.607Z,94.63
2022-12-18T04:43:12.949Z,94.64
2022-12-18T04:46:15.523Z,94.51
2022-12-18T04:49:18.298Z,94.63
2022-12-18T04:52:20.317Z,94.59
2022-12-18T04:55:22.803Z,94.35
2022-12-18T04:58:25.175Z,94.29
2022-12-18T05:01:34.100Z,94.23
2022-12-18T05:04:36.835Z,94.25
2022-12-18T05:07:38.830Z,94.22
2022-12-18T05:10:40.893Z,94.37
2022-12-18T05:13:45.460Z,94.55
2022-12-18T05:16:47.628Z,94.60
2022-12-18T05:19:49.982Z,94.77
2022-12-18T05:22:52.675Z,94.79
2022-12-18T05:25:56.796Z,94.76
2022-12-18T05:28:58.842Z,94.69
2022-12-18T05:32:00.844Z,94.75
2022-12-18T05:35:03.263Z,94.79
2022-12-18T05:38:05.393Z,94.82
2022-12-18T05:41:08.793Z,94.94
2022-12-18T05:44:10.788Z,95.38
2022-12-18T05:47:12.911Z,95.81
2022-12-18T05:50:15.025Z,95.81
2022-12-18T05:53:20.475Z,96.20
2022-12-18T05:56:23.568Z,96.84
2022-12-18T05:59:25.595Z,96.98
2022-12-18T06:02:27.752Z,96.70
2022-12-18T06:05:29.879Z,96.98
2022-12-18T06:08:32.091Z,97.09
2022-12-18T06:11:34.126Z,97.30
2022-12-18T06:14:36.135Z,97.35
2022-12-18T06:17:38.407Z,97.80
2022-12-18T06:20:42.470Z,98.08
2022-12-18T06:23:44.752Z,98.11
2022-12-18T06:26:46.855Z,98.25
2022-12-18T06:29:48.875Z,98.57
2022-12-18T06:32:56.371Z,98.55
2022-12-18T06:36:09.208Z,98.62
2022-12-18T06:39:11.407Z,98.82
2022-12-18T06:42:13.808Z,98.91
2022-12-18T06:45:16.237Z,99.06
2022-12-18T06:48:18.311Z,99.09
2022-12-18T06:51:22.145Z,99.04
2022-12-18T06:54:24.162Z,99.00
2022-12-18T06:57:26.353Z,99.25
2022-12-18T07:00:28.453Z,99.54
2022-12-18T07:03:30.938Z,99.42
2022-12-18T07:06:32.998Z,99.34
2022-12-18T07:09:35.365Z,99.33
2022-12-18T07:12:37.463Z,99.27
2022-12-18T07:15:39.512Z,99.17
2022-12-18T07:18:41.634Z,99.58
2022-12-18T07:21:43.749Z,99.64
2022-12-18T07:24:45.973Z,99.47
2022-12-18T07:27:47.971Z,99.36
2022-12-18T07:30:50.039Z,99.12
2022-12-18T07:33:53.031Z,98.92
2022-12-18T07:36:55.049Z,98.79
2022-12-18T07:39:57.133Z,98.65
2022-12-18T07:42:59.274Z,98.41
2022-12-18T07:46:01.768Z,98.08
2022-12-18T07:49:03.898Z,97.82
2022-12-18T07:52:05.920Z,97.33
2022-12-18T07:55:08.498Z,97.25
2022-12-18T07:58:11.042Z,96.79
2022-12-18T08:01:13.351Z,96.73
2022-12-18T08:04:15.475Z,96.26
2022-12-18T08:07:17.467Z,95.77
2022-12-18T08:10:20.324Z,95.15
2022-12-18T08:13:22.747Z,94.36
2022-12-18T08:16:25.423Z,93.67
2022-12-18T08:19:27.524Z,92.72
2022-12-18T08:22:29.706Z,92.24
2022-12-18T08:25:31.775Z,91.78
2022-12-18T08:28:34.739Z,91.39
2022-12-18T08:31:38.404Z,89.82
2022-12-18T08:34:40.545Z,88.19
2022-12-18T08:37:42.536Z,86.90
2022-12-18T08:40:44.649Z,85.13
2022-12-18T08:44:05.641Z,84.29
2022-12-18T08:47:08.613Z,84.06
2022-12-18T08:50:10.941Z,84.44
2022-12-18T08:53:13.222Z,84.18
2022-12-18T08:56:15.632Z,83.24
2022-12-18T08:59:20.111Z,82.81
2022-12-18T09:02:23.004Z,83.30
2022-12-18T09:05:25.352Z,82.34
2022-12-18T09:08:28.265Z,83.51
2022-12-18T09:11:31.053Z,83.29
2022-12-18T09:14:33.208Z,83.21
2022-12-18T09:17:35.272Z,83.38
2022-12-18T09:20:38.574Z,84.32
2022-12-18T09:23:40.941Z,84.88
2022-12-18T09:26:43.475Z,85.24
2022-12-18T09:29:48.993Z,85.29
2022-12-18T09:32:51.197Z,85.14
2022-12-18T09:35:53.297Z,84.52
2022-12-18T09:38:55.854Z,84.28
2022-12-18T09:42:00.001Z,84.22
2022-12-18T09:45:03.563Z,84.39
2022-12-18T09:48:08.255Z,84.58
2022-12-18T09:51:27.535Z,84.05
2022-12-18T09:54:41.778Z,84.21
2022-12-18T09:57:52.437Z,83.94
2022-12-18T10:00:55.371Z,84.18
2022-12-18T10:03:57.986Z,83.29
2022-12-18T10:07:13.115Z,82.83
2022-12-18T10:10:44.385Z,82.65
2022-12-18T10:14:18.623Z,81.00
2022-12-18T10:17:40.081Z,78.50
2022-12-18T10:20:54.112Z,74.91
2022-12-18T10:24:14.798Z,72.97
2022-12-18T10:27:22.572Z,70.22
2022-12-18T10:30:26.259Z,69.43
2022-12-18T10:33:31.338Z,67.64
2022-12-18T10:36:33.354Z,67.45
2022-12-18T10:39:35.430Z,69.00
2022-12-18T10:42:37.532Z,70.44
2022-12-18T10:45:40.561Z,68.08
2022-12-18T10:48:53.957Z,70.78
2022-12-18T10:52:26.819Z,70.55
2022-12-18T10:55:34.592Z,73.09
2022-12-18T10:58:38.844Z,72.10
2022-12-18T11:01:47.146Z,71.28
2022-12-18T11:04:53.639Z,70.89
2022-12-18T11:07:57.324Z,70.33
2022-12-18T11:10:59.622Z,70.43
2022-12-18T11:14:07.950Z,70.75
2022-12-18T11:17:26.669Z,71.34
2022-12-18T11:20:34.659Z,71.49
2022-12-18T11:23:38.679Z,71.72
2022-12-18T11:26:41.176Z,71.96
2022-12-18T11:29:46.538Z,72.14
2022-12-18T11:32:58.255Z,71.89
2022-12-18T11:36:06.558Z,70.89
2022-12-18T11:39:21.000Z,69.81
2022-12-18T11:42:49.398Z,70.19
2022-12-18T11:45:55.638Z,70.11
2022-12-18T11:49:26.767Z,69.95
2022-12-18T11:52:39.311Z,67.42
2022-12-18T11:55:56.431Z,67.83
2022-12-18T11:59:09.218Z,68.13
2022-12-18T12:02:29.702Z,68.83
2022-12-18T12:05:52.027Z,67.63
2022-12-18T12:09:06.163Z,67.30
2022-12-18T12:12:17.146Z,66.08
2022-12-18T12:15:19.180Z,65.76
2022-12-18T12:18:34.439Z,65.39
2022-12-18T12:21:46.218Z,65.57
2022-12-18T12:25:16.257Z,64.94
2022-12-18T12:29:04.173Z,65.52
2022-12-18T12:32:36.049Z,65.71
2022-12-18T12:36:15.786Z,65.00
2022-12-18T12:39:24.718Z,65.69
2022-12-18T12:42:57.967Z,64.00
2022-12-18T12:46:10.005Z,63.91
2022-12-18T12:49:18.711Z,64.84
2022-12-18T12:52:26.947Z,64.77
2022-12-18T12:55:30.964Z,65.22
2022-12-18T12:58:48.281Z,65.52
2022-12-18T13:02:24.218Z,66.33
2022-12-18T13:05:47.324Z,65.84
2022-12-18T13:09:01.207Z,66.54
2022-12-18T13:12:33.336Z,66.76
2022-12-18T13:15:39.821Z,66.92
2022-12-18T13:19:11.969Z,66.70
2022-12-18T13:22:36.566Z,66.61
2022-12-18T13:25:39.391Z,66.63
2022-12-18T13:28:48.360Z,66.19
2022-12-18T13:31:50.373Z,66.54
2022-12-18T13:35:18.515Z,66.41
2022-12-18T13:38:32.425Z,66.08
2022-12-18T13:41:35.058Z,67.39
2022-12-18T13:44:42.400Z,67.51
2022-12-18T13:47:45.003Z,68.03
2022-12-18T13:51:17.862Z,68.16
2022-12-18T13:54:41.812Z,68.39
2022-12-18T13:57:44.084Z,68.71
2022-12-18T14:00:46.423Z,68.81
2022-12-18T14:03:48.935Z,69.33
2022-12-18T14:06:57.425Z,69.72
2022-12-18T14:10:12.598Z,69.88
2022-12-18T14:13:38.521Z,70.30
2022-12-18T14:16:42.522Z,70.92
2022-12-18T14:19:51.453Z,70.75
2022-12-18T14:22:53.831Z,71.37
2022-12-18T14:25:58.569Z,71.72
2022-12-18T14:29:20.848Z,71.71
2022-12-18T14:32:23.915Z,72.10
2022-12-18T14:35:25.962Z,72.47
2022-12-18T14:38:29.913Z,73.65
2022-12-18T14:41:34.217Z,74.09
2022-12-18T14:44:50.544Z,74.55
2022-12-18T14:47:58.949Z,75.16
2022-12-18T14:51:08.069Z,75.96
2022-12-18T14:54:18.715Z,76.60
2022-12-18T14:57:38.973Z,77.56
2022-12-18T15:00:46.476Z,78.48
2022-12-18T15:03:49.317Z,78.81
2022-12-18T15:07:05.821Z,79.92
2022-12-18T15:10:16.452Z,79.82
2022-12-18T15:13:25.981Z,80.12
2022-12-18T15:16:29.345Z,80.33
2022-12-18T15:19:43.261Z,81.47
2022-12-18T15:22:50.992Z,81.77
2022-12-18T15:25:58.393Z,82.67
2022-12-18T15:29:04.674Z,83.34
2022-12-18T15:32:24.441Z,84.07
2022-12-18T15:35:27.468Z,83.50
2022-12-18T15:38:30.650Z,83.11
2022-12-18T15:41:38.138Z,83.84
2022-12-18T15:44:41.313Z,84.51
2022-12-18T15:47:44.480Z,85.29
2022-12-18T15:50:48.364Z,85.84
2022-12-18T15:53:53.976Z,85.76
2022-12-18T15:57:15.234Z,85.79
2022-12-18T16:00:18.519Z,85.23
2022-12-18T16:03:21.411Z,86.04
2022-12-18T16:06:24.973Z,85.72
2022-12-18T16:09:30.945Z,85.67
2022-12-18T16:12:35.485Z,86.10
2022-12-18T16:15:39.170Z,86.38
2022-12-18T16:18:43.485Z,85.80
2022-12-18T16:21:48.002Z,86.58
2022-12-18T16:24:54.154Z,86.92
2022-12-18T16:27:58.829Z,86.71
2022-12-18T16:31:02.904Z,86.56
2022-12-18T16:34:36.296Z,86.25
2022-12-18T16:37:40.461Z,86.05
2022-12-18T16:41:03.638Z,86.69
2022-12-18T16:44:06.268Z,86.92
2022-12-18T16:47:08.789Z,87.17
2022-12-18T16:50:14.893Z,87.12
2022-12-18T16:53:17.959Z,87.44
2022-12-18T16:56:21.843Z,87.70
2022-12-18T16:59:27.567Z,88.32
2022-12-18T17:02:32.328Z,88.69
2022-12-18T17:05:37.189Z,89.39
2022-12-18T17:08:41.395Z,89.54
2022-12-18T17:11:48.699Z,90.22
2022-12-18T17:14:51.937Z,91.14
2022-12-18T17:17:55.140Z,91.21
2022-12-18T17:21:19.367Z,91.65
2022-12-18T17:24:23.555Z,91.48
2022-12-18T17:27:26.674Z,91.82
2022-12-18T17:30:30.620Z,91.99
2022-12-18T17:33:36.526Z,92.59
2022-12-18T17:36:39.753Z,92.96
2022-12-18T17:39:44.542Z,92.48
2022-12-18T17:42:48.904Z,92.78
2022-12-18T17:45:52.074Z,93.43
2022-12-18T17:48:59.734Z,94.16
2022-12-18T17:52:02.928Z,93.97
2022-12-18T17:55:06.461Z,94.50
2022-12-18T17:58:09.663Z,94.66
2022-12-18T18:01:18.431Z,94.79
2022-12-18T18:04:21.159Z,94.96
2022-12-18T18:07:23.994Z,94.92
2022-12-18T18:10:28.303Z,94.42
2022-12-18T18:13:50.728Z,94.88
2022-12-18T18:16:53.911Z,95.68
2022-12-18T18:19:58.253Z,96.08
2022-12-18T18:23:01.132Z,96.12
2022-12-18T18:26:09.867Z,96.32
2022-12-18T18:29:20.575Z,96.29
2022-12-18T18:32:23.727Z,96.48
2022-12-18T18:35:53.045Z,96.81
2022-12-18T18:38:51.041Z,96.95
2022-12-18T18:41:54.091Z,97.24
2022-12-18T18:44:57.044Z,96.71
2022-12-18T18:48:00.618Z,96.75
2022-12-18T18:51:07.440Z,96.79
2022-12-18T18:54:11.480Z,96.78
2022-12-18T18:57:24.260Z,96.77
2022-12-18T19:00:29.399Z,96.98
2022-12-18T19:03:33.048Z,97.13
2022-12-18T19:06:35.976Z,97.17
2022-12-18T19:09:38.943Z,97.45
2022-12-18T19:13:00.088Z,97.42
2022-12-18T19:16:08.013Z,97.54
2022-12-18T19:19:13.451Z,97.55
2022-12-18T19:22:17.196Z,97.84
2022-12-18T19:25:19.813Z,97.74
2022-12-18T19:28:26.848Z,97.61
2022-12-18T19:31:35.256Z,97.46
2022-12-18T19:34:40.278Z,97.60
2022-12-18T19:37:43.054Z,97.37
2022-12-18T19:40:45.946Z,97.41
2022-12-18T19:43:49.820Z,97.34
2022-12-18T19:46:52.543Z,97.24
2022-12-18T19:49:55.364Z,97.28
2022-12-18T19:52:59.576Z,97.31
2022-12-18T19:56:12.550Z,97.45
2022-12-18T19:59:16.843Z,97.48
2022-12-18T20:02:22.180Z,97.44
2022-12-18T20:05:25.966Z,97.48
2022-12-18T20:08:30.171Z,97.55
2022-12-18T20:11:41.666Z,97.64
2022-12-18T20:14:45.494Z,97.58
2022-12-18T20:17:48.674Z,97.69
2022-12-18T20:20:55.217Z,97.87
2022-12-18T20:24:01.479Z,97.95
2022-12-18T20:27:04.700Z,97.61
2022-12-18T20:30:08.761Z,97.85
2022-12-18T20:33:11.260Z,97.75
2022-12-18T20:36:20.149Z,98.08
2022-12-18T20:39:27.072Z,97.99
2022-12-18T20:42:29.622Z,97.76
2022-12-18T20:45:31.760Z,98.00
2022-12-18T20:48:34.416Z,98.23
2022-12-18T20:51:37.413Z,98.40
2022-12-18T20:54:40.435Z,98.15
2022-12-18T20:57:42.823Z,98.16
2022-12-18T21:00:45.257Z,98.20
2022-12-18T21:03:49.371Z,98.22
2022-12-18T21:06:55.842Z,98.28
2022-12-18T21:10:04.933Z,98.41
2022-12-18T21:13:08.715Z,98.51
2022-12-18T21:16:12.375Z,98.56
2022-12-18T21:19:17.872Z,98.66
2022-12-18T21:22:20.192Z,98.84
2022-12-18T21:25:22.482Z,98.77
2022-12-18T21:28:24.531Z,98.83
2022-12-18T21:31:29.307Z,98.89
2022-12-18T21:34:33.336Z,99.22
2022-12-18T21:37:35.489Z,99.22
2022-12-18T21:40:39.438Z,99.31
2022-12-18T21:44:00.181Z,99.44
2022-12-18T21:47:12.280Z,99.43
2022-12-18T21:50:24.585Z,99.50
2022-12-18T21:53:26.674Z,99.54
2022-12-18T21:56:51.372Z,99.65
2022-12-18T21:59:53.566Z,99.72
2022-12-18T22:03:10.465Z,99.57
2022-12-18T22:06:19.617Z,99.50
2022-12-18T22:09:24.208Z,99.60
2022-12-18T22:12:35.811Z,99.53
2022-12-18T22:15:46.013Z,99.69
2022-12-18T22:18:48.489Z,99.57
2022-12-18T22:21:51.248Z,99.67
2022-12-18T22:24:53.382Z,99.81
2022-12-18T22:28:13.955Z,99.69
2022-12-18T22:31:17.058Z,99.64
2022-12-18T22:34:22.851Z,99.58
2022-12-18T22:37:25.390Z,99.71
2022-12-18T22:40:28.234Z,100.00
2022-12-18T22:43:30.425Z,99.93
2022-12-18T22:46:37.951Z,99.93
2022-12-18T22:49:40.052Z,99.79
2022-12-18T22:52:42.556Z,99.66
2022-12-18T22:55:44.624Z,99.85
2022-12-18T22:58:51.484Z,100.00
2022-12-18T23:01:58.564Z,100.00
2022-12-18T23:05:00.997Z,100.00
2022-12-18T23:08:04.486Z,100.00
2022-12-18T23:11:06.973Z,100.00
2022-12-18T23:14:09.068Z,100.00
2022-12-18T23:17:11.969Z,100.00
2022-12-18T23:20:14.203Z,100.00
2022-12-18T23:23:16.218Z,100.00
2022-12-18T23:26:27.694Z,100.00
2022-12-18T23:29:29.807Z,99.63
2022-12-18T23:32:31.836Z,99.66
2022-12-18T23:35:35.645Z,99.89
2022-12-18T23:38:38.077Z,99.85
2022-12-18T23:41:40.291Z,99.81
2022-12-18T23:44:42.530Z,100.00
2022-12-18T23:47:44.622Z,100.00
2022-12-18T23:50:49.227Z,100.00
2022-12-18T23:53:52.468Z,100.00
2022-12-18T23:56:54.493Z,100.00
2022-12-18T23:59:56.625Z,100.00
